createdAt,value
2018-09-04T00:00:03.238Z,99.99
2018-09-04T00:01:03.442Z,99.99
2018-09-04T00:02:03.253Z,99.99
2018-09-04T00:03:03.246Z,99.99
2018-09-04T00:04:03.461Z,99.99
2018-09-04T00:05:03.263Z,99.99
2018-09-04T00:06:03.254Z,99.99
2018-09-04T00:07:03.267Z,99.99
2018-09-04T00:08:03.273Z,99.99
2018-09-04T00:09:03.277Z,99.99
2018-09-04T00:10:03.274Z,99.99
2018-09-04T00:11:03.270Z,99.99
2018-09-04T00:12:03.280Z,99.99
2018-09-04T00:13:03.476Z,99.99
2018-09-04T00:14:03.276Z,99.99
2018-09-04T00:15:03.287Z,99.99
2018-09-04T00:16:03.282Z,99.99
2018-09-04T00:17:03.312Z,99.99
2018-09-04T00:18:03.297Z,99.99
2018-09-04T00:19:03.290Z,99.99
2018-09-04T00:20:03.292Z,99.99
2018-09-04T00:21:03.297Z,99.99
2018-09-04T00:22:03.296Z,99.99
2018-09-04T00:23:03.500Z,99.99
2018-09-04T00:24:03.504Z,99.99
2018-09-04T00:25:03.317Z,99.99
2018-09-04T00:26:03.306Z,99.99
2018-09-04T00:27:03.308Z,99.99
2018-09-04T00:28:03.313Z,99.99
2018-09-04T00:29:03.328Z,99.99
2018-09-04T00:30:03.318Z,99.99
2018-09-04T00:31:03.325Z,99.99
2018-09-04T00:32:03.333Z,99.99
2018-09-04T00:33:03.339Z,99.99
2018-09-04T00:34:03.531Z,99.99
2018-09-04T00:35:03.547Z,99.99
2018-09-04T00:36:03.348Z,99.99
2018-09-04T00:37:03.336Z,99.99
2018-09-04T00:38:03.352Z,99.99
2018-09-04T00:39:03.341Z,99.99
2018-09-04T00:40:03.354Z,99.99
2018-09-04T00:41:03.343Z,99.99
2018-09-04T00:42:03.353Z,99.99
2018-09-04T00:43:03.564Z,99.99
2018-09-04T00:44:03.351Z,99.99
2018-09-04T00:45:03.367Z,99.99
2018-09-04T00:46:03.557Z,99.99
2018-09-04T00:47:03.355Z,99.99
2018-09-04T00:48:03.359Z,99.99
2018-09-04T00:49:03.566Z,99.99
2018-09-04T00:50:03.381Z,99.99
2018-09-04T00:51:03.379Z,99.99
2018-09-04T00:52:03.379Z,99.99
2018-09-04T00:53:03.370Z,99.99
2018-09-04T00:54:03.386Z,99.99
2018-09-04T00:55:03.385Z,99.99
2018-09-04T00:56:03.380Z,99.99
2018-09-04T00:57:03.394Z,99.99
2018-09-04T00:58:03.382Z,99.99
2018-09-04T00:59:03.477Z,99.99
2018-09-04T01:00:03.387Z,99.99
2018-09-04T01:01:03.614Z,99.99
2018-09-04T01:02:03.591Z,99.99
2018-09-04T01:03:03.595Z,99.99
2018-09-04T01:04:03.395Z,99.99
2018-09-04T01:05:03.400Z,99.99
2018-09-04T01:06:03.398Z,99.99
2018-09-04T01:07:03.412Z,99.99
2018-09-04T01:08:03.403Z,99.99
2018-09-04T01:09:03.419Z,99.99
2018-09-04T01:10:03.422Z,99.99
2018-09-04T01:11:03.612Z,99.99
2018-09-04T01:12:03.617Z,99.99
2018-09-04T01:13:03.415Z,99.99
2018-09-04T01:14:03.453Z,99.99
2018-09-04T01:15:03.445Z,99.99
2018-09-04T01:16:03.421Z,99.99
2018-09-04T01:17:03.421Z,99.99
2018-09-04T01:18:03.636Z,99.99
2018-09-04T01:19:03.431Z,99.99
2018-09-04T01:20:03.446Z,99.99
2018-09-04T01:21:03.429Z,99.99
2018-09-04T01:22:03.431Z,99.99
2018-09-04T01:23:03.443Z,99.99
2018-09-04T01:24:03.449Z,99.99
2018-09-04T01:25:03.440Z,99.99
2018-09-04T01:26:03.464Z,99.99
2018-09-04T01:27:03.659Z,99.99
2018-09-04T01:28:03.457Z,99.99
2018-09-04T01:29:03.446Z,99.99
2018-09-04T01:30:03.448Z,99.99
2018-09-04T01:31:03.451Z,99.99
2018-09-04T01:32:03.469Z,99.99
2018-09-04T01:33:03.472Z,99.99
2018-09-04T01:34:03.472Z,99.99
2018-09-04T01:35:03.458Z,99.99
2018-09-04T01:36:03.464Z,99.99
2018-09-04T01:37:03.464Z,99.99
2018-09-04T01:38:03.467Z,99.99
2018-09-04T01:39:03.469Z,99.99
2018-09-04T01:40:03.469Z,99.99
2018-09-04T01:41:03.483Z,99.99
2018-09-04T01:42:03.480Z,99.99
2018-09-04T01:43:03.480Z,99.99
2018-09-04T01:44:03.483Z,99.99
2018-09-04T01:45:03.483Z,99.99
2018-09-04T01:46:03.483Z,99.99
2018-09-04T01:47:03.488Z,99.99
2018-09-04T01:48:03.489Z,99.99
2018-09-04T01:49:03.504Z,99.99
2018-09-04T01:50:03.502Z,99.99
2018-09-04T01:51:03.492Z,99.99
2018-09-04T01:52:03.504Z,99.99
2018-09-04T01:53:03.506Z,99.99
2018-09-04T01:54:03.497Z,99.99
2018-09-04T01:55:03.516Z,99.99
2018-09-04T01:56:03.504Z,99.99
2018-09-04T01:57:03.502Z,99.99
2018-09-04T01:58:03.520Z,99.99
2018-09-04T01:59:03.506Z,99.99
2018-09-04T02:00:03.520Z,99.99
2018-09-04T02:01:03.510Z,99.99
2018-09-04T02:02:03.512Z,99.99
2018-09-04T02:03:03.528Z,99.99
2018-09-04T02:04:03.520Z,99.99
2018-09-04T02:05:03.531Z,99.99
2018-09-04T02:06:03.534Z,99.99
2018-09-04T02:07:03.544Z,99.99
2018-09-04T02:08:03.524Z,99.99
2018-09-04T02:09:03.542Z,99.99
2018-09-04T02:10:03.731Z,99.99
2018-09-04T02:11:03.528Z,99.99
2018-09-04T02:12:03.533Z,99.99
2018-09-04T02:13:03.751Z,99.99
2018-09-04T02:14:03.536Z,99.99
2018-09-04T02:15:03.536Z,99.99
2018-09-04T02:16:03.554Z,99.99
2018-09-04T02:17:03.556Z,99.99
2018-09-04T02:18:03.539Z,99.99
2018-09-04T02:19:03.560Z,99.99
2018-09-04T02:20:03.547Z,99.99
2018-09-04T02:21:03.548Z,99.99
2018-09-04T02:22:03.548Z,99.99
2018-09-04T02:23:03.564Z,99.99
2018-09-04T02:24:03.557Z,99.99
2018-09-04T02:25:03.567Z,99.99
2018-09-04T02:26:03.569Z,99.99
2018-09-04T02:27:03.562Z,99.99
2018-09-04T02:28:03.561Z,99.99
2018-09-04T02:29:03.570Z,99.99
2018-09-04T02:30:03.565Z,99.99
2018-09-04T02:31:03.570Z,99.99
2018-09-04T02:32:03.580Z,99.99
2018-09-04T02:33:03.602Z,99.99
2018-09-04T02:34:03.570Z,99.99
2018-09-04T02:35:03.801Z,99.99
2018-09-04T02:36:03.600Z,99.99
2018-09-04T02:37:03.576Z,99.99
2018-09-04T02:38:03.794Z,99.99
2018-09-04T02:39:03.580Z,99.99
2018-09-04T02:40:03.609Z,99.99
2018-09-04T02:41:03.594Z,99.99
2018-09-04T02:42:03.593Z,99.99
2018-09-04T02:43:03.585Z,99.99
2018-09-04T02:44:03.589Z,99.99
2018-09-04T02:45:03.605Z,99.99
2018-09-04T02:46:03.597Z,99.99
2018-09-04T02:47:03.795Z,99.99
2018-09-04T02:48:03.804Z,99.99
2018-09-04T02:49:03.614Z,99.99
2018-09-04T02:50:03.613Z,99.99
2018-09-04T02:51:03.603Z,99.99
2018-09-04T02:52:03.806Z,99.99
2018-09-04T02:53:03.606Z,99.99
2018-09-04T02:54:03.821Z,99.99
2018-09-04T02:55:03.621Z,99.99
2018-09-04T02:56:03.623Z,99.99
2018-09-04T02:57:03.611Z,99.99
2018-09-04T02:58:03.621Z,99.99
2018-09-04T02:59:03.626Z,99.99
2018-09-04T03:00:03.615Z,99.99
2018-09-04T03:01:03.835Z,99.99
2018-09-04T03:02:03.622Z,99.99
2018-09-04T03:03:03.824Z,99.99
2018-09-04T03:04:03.838Z,99.99
2018-09-04T03:05:03.641Z,99.99
2018-09-04T03:06:03.636Z,99.99
2018-09-04T03:07:03.655Z,99.99
2018-09-04T03:08:03.641Z,99.99
2018-09-04T03:09:03.637Z,99.99
2018-09-04T03:10:03.635Z,99.99
2018-09-04T03:11:03.667Z,99.99
2018-09-04T03:12:03.661Z,99.99
2018-09-04T03:13:03.859Z,99.99
2018-09-04T03:14:03.644Z,99.99
2018-09-04T03:15:03.654Z,99.99
2018-09-04T03:16:03.643Z,99.99
2018-09-04T03:17:03.852Z,99.99
2018-09-04T03:18:03.651Z,99.99
2018-09-04T03:19:03.666Z,99.99
2018-09-04T03:20:03.652Z,99.99
2018-09-04T03:21:03.858Z,99.99
2018-09-04T03:22:03.868Z,99.99
2018-09-04T03:23:03.919Z,99.99
2018-09-04T03:24:03.863Z,99.99
2018-09-04T03:25:03.662Z,99.99
2018-09-04T03:26:03.679Z,99.99
2018-09-04T03:27:03.675Z,99.99
2018-09-04T03:28:03.872Z,99.99
2018-09-04T03:29:03.668Z,99.99
2018-09-04T03:30:03.688Z,99.99
2018-09-04T03:31:03.672Z,99.99
2018-09-04T03:32:03.877Z,99.99
2018-09-04T03:33:03.690Z,99.99
2018-09-04T03:34:03.895Z,99.99
2018-09-04T03:35:03.702Z,99.99
2018-09-04T03:36:03.708Z,99.99
2018-09-04T03:37:03.709Z,99.99
2018-09-04T03:38:03.699Z,99.99
2018-09-04T03:39:03.699Z,99.99
2018-09-04T03:40:03.721Z,99.99
2018-09-04T03:41:03.896Z,99.99
2018-09-04T03:42:03.897Z,99.99
2018-09-04T03:43:03.720Z,99.99
2018-09-04T03:44:03.913Z,99.99
2018-09-04T03:45:03.704Z,99.99
2018-09-04T03:46:03.702Z,99.99
2018-09-04T03:47:03.704Z,99.99
2018-09-04T03:48:03.705Z,99.99
2018-09-04T03:49:03.723Z,99.99
2018-09-04T03:50:03.722Z,99.99
2018-09-04T03:51:03.712Z,99.99
2018-09-04T03:52:03.718Z,99.99
2018-09-04T03:53:03.920Z,99.99
2018-09-04T03:54:03.722Z,99.99
2018-09-04T03:55:03.722Z,99.99
2018-09-04T03:56:03.926Z,99.99
2018-09-04T03:57:03.930Z,99.99
2018-09-04T03:58:03.935Z,99.99
2018-09-04T03:59:03.733Z,99.99
2018-09-04T04:00:03.748Z,99.99
2018-09-04T04:01:03.736Z,99.99
2018-09-04T04:02:03.740Z,99.99
2018-09-04T04:03:03.747Z,99.99
2018-09-04T04:04:03.741Z,99.99
2018-09-04T04:05:03.744Z,99.99
2018-09-04T04:06:03.746Z,99.99
2018-09-04T04:07:03.951Z,99.99
2018-09-04T04:08:03.758Z,99.99
2018-09-04T04:09:03.794Z,99.99
2018-09-04T04:10:03.767Z,99.99
2018-09-04T04:11:03.756Z,99.99
2018-09-04T04:12:04.153Z,99.99
2018-09-04T04:13:03.788Z,99.99
2018-09-04T04:14:03.792Z,99.99
2018-09-04T04:15:03.796Z,99.99
2018-09-04T04:16:03.800Z,99.99
2018-09-04T04:17:03.773Z,99.99
2018-09-04T04:18:03.776Z,99.99
2018-09-04T04:19:03.773Z,99.99
2018-09-04T04:20:03.779Z,99.99
2018-09-04T04:21:03.782Z,99.99
2018-09-04T04:22:03.789Z,99.99
2018-09-04T04:23:03.783Z,99.99
2018-09-04T04:24:03.928Z,99.99
2018-09-04T04:25:03.785Z,99.99
2018-09-04T04:26:03.795Z,99.99
2018-09-04T04:27:03.791Z,99.99
2018-09-04T04:28:03.803Z,99.99
2018-09-04T04:29:04.003Z,99.99
2018-09-04T04:30:03.795Z,99.99
2018-09-04T04:31:03.795Z,99.99
2018-09-04T04:32:03.797Z,99.99
2018-09-04T04:33:04.064Z,99.99
2018-09-04T04:34:03.816Z,99.99
2018-09-04T04:35:03.800Z,99.99
2018-09-04T04:36:04.003Z,99.99
2018-09-04T04:37:03.807Z,99.99
2018-09-04T04:38:03.806Z,99.99
2018-09-04T04:39:04.020Z,99.99
2018-09-04T04:40:03.917Z,99.99
2018-09-04T04:41:03.811Z,99.99
2018-09-04T04:42:03.815Z,99.99
2018-09-04T04:43:03.814Z,99.99
2018-09-04T04:44:03.816Z,99.99
2018-09-04T04:45:03.818Z,99.99
2018-09-04T04:46:03.820Z,99.99
2018-09-04T04:47:03.836Z,99.99
2018-09-04T04:48:04.106Z,99.99
2018-09-04T04:49:03.824Z,99.99
2018-09-04T04:50:03.853Z,99.99
2018-09-04T04:51:03.841Z,99.99
2018-09-04T04:52:04.036Z,99.99
2018-09-04T04:53:04.036Z,99.99
2018-09-04T04:54:03.832Z,99.99
2018-09-04T04:55:04.070Z,99.99
2018-09-04T04:56:03.862Z,99.99
2018-09-04T04:57:03.838Z,99.99
2018-09-04T04:58:03.850Z,99.99
2018-09-04T04:59:03.842Z,99.99
2018-09-04T05:00:04.046Z,99.99
2018-09-04T05:01:03.847Z,99.99
2018-09-04T05:02:04.047Z,99.99
2018-09-04T05:03:03.861Z,99.99
2018-09-04T05:04:04.059Z,99.99
2018-09-04T05:05:03.866Z,99.99
2018-09-04T05:06:03.853Z,99.99
2018-09-04T05:07:03.852Z,99.99
2018-09-04T05:08:03.853Z,99.99
2018-09-04T05:09:04.058Z,99.99
2018-09-04T05:10:03.855Z,99.99
2018-09-04T05:11:03.999Z,99.99
2018-09-04T05:12:03.862Z,99.99
2018-09-04T05:13:03.888Z,99.99
2018-09-04T05:14:03.878Z,99.99
2018-09-04T05:15:03.864Z,99.99
2018-09-04T05:16:04.077Z,99.99
2018-09-04T05:17:03.869Z,99.99
2018-09-04T05:18:03.921Z,99.99
2018-09-04T05:19:04.072Z,99.99
2018-09-04T05:20:03.874Z,99.99
2018-09-04T05:21:03.874Z,99.99
2018-09-04T05:22:03.886Z,99.99
2018-09-04T05:23:03.888Z,99.99
2018-09-04T05:24:03.899Z,99.99
2018-09-04T05:25:04.081Z,99.99
2018-09-04T05:26:03.900Z,99.99
2018-09-04T05:27:03.903Z,99.99
2018-09-04T05:28:04.095Z,99.99
2018-09-04T05:29:03.884Z,99.99
2018-09-04T05:30:03.886Z,99.99
2018-09-04T05:31:03.886Z,99.99
2018-09-04T05:32:03.898Z,99.99
2018-09-04T05:33:04.096Z,99.99
2018-09-04T05:34:04.094Z,99.99
2018-09-04T05:35:03.890Z,99.99
2018-09-04T05:36:03.910Z,99.99
2018-09-04T05:37:03.910Z,99.99
2018-09-04T05:38:03.906Z,99.99
2018-09-04T05:39:03.899Z,99.99
2018-09-04T05:40:03.901Z,99.99
2018-09-04T05:41:03.902Z,99.99
2018-09-04T05:42:03.899Z,99.99
2018-09-04T05:43:04.117Z,99.99
2018-09-04T05:44:03.906Z,99.99
2018-09-04T05:45:03.918Z,99.99
2018-09-04T05:46:03.913Z,99.99
2018-09-04T05:47:04.112Z,99.99
2018-09-04T05:48:03.914Z,99.99
2018-09-04T05:49:03.930Z,99.99
2018-09-04T05:50:04.127Z,99.99
2018-09-04T05:51:03.916Z,99.99
2018-09-04T05:52:03.937Z,99.99
2018-09-04T05:53:03.930Z,99.99
2018-09-04T05:54:03.918Z,99.99
2018-09-04T05:55:03.976Z,99.99
2018-09-04T05:56:03.923Z,99.99
2018-09-04T05:57:03.925Z,99.99
2018-09-04T05:58:04.127Z,99.99
2018-09-04T05:59:04.133Z,99.99
2018-09-04T06:00:03.944Z,99.99
2018-09-04T06:01:03.929Z,99.99
2018-09-04T06:02:03.935Z,99.99
2018-09-04T06:03:03.934Z,99.99
2018-09-04T06:04:03.934Z,99.99
2018-09-04T06:05:04.148Z,99.99
2018-09-04T06:06:03.947Z,99.99
2018-09-04T06:07:03.950Z,99.99
2018-09-04T06:08:03.938Z,99.99
2018-09-04T06:09:03.941Z,99.99
2018-09-04T06:10:03.944Z,99.99
2018-09-04T06:11:03.945Z,99.99
2018-09-04T06:12:03.962Z,99.99
2018-09-04T06:13:03.972Z,99.99
2018-09-04T06:14:04.151Z,99.99
2018-09-04T06:15:04.169Z,99.99
2018-09-04T06:16:03.953Z,99.99
2018-09-04T06:17:03.955Z,99.99
2018-09-04T06:18:04.163Z,99.99
2018-09-04T06:19:04.162Z,99.99
2018-09-04T06:20:04.012Z,99.99
2018-09-04T06:21:03.961Z,99.99
2018-09-04T06:22:03.978Z,99.99
2018-09-04T06:23:04.180Z,99.99
2018-09-04T06:24:03.981Z,99.99
2018-09-04T06:25:03.978Z,99.99
2018-09-04T06:26:04.195Z,99.99
2018-09-04T06:27:03.988Z,99.99
2018-09-04T06:28:03.985Z,99.99
2018-09-04T06:29:03.979Z,99.99
2018-09-04T06:30:03.977Z,99.99
2018-09-04T06:31:03.992Z,99.99
2018-09-04T06:32:03.993Z,99.99
2018-09-04T06:33:04.189Z,99.99
2018-09-04T06:34:04.008Z,99.99
2018-09-04T06:35:04.002Z,99.99
2018-09-04T06:36:03.993Z,99.99
2018-09-04T06:37:04.200Z,99.99
2018-09-04T06:38:04.007Z,99.99
2018-09-04T06:39:03.996Z,99.99
2018-09-04T06:40:04.202Z,99.99
2018-09-04T06:41:04.009Z,99.99
2018-09-04T06:42:04.001Z,99.99
2018-09-04T06:43:04.019Z,99.99
2018-09-04T06:44:04.008Z,99.99
2018-09-04T06:45:04.025Z,99.99
2018-09-04T06:46:04.026Z,99.99
2018-09-04T06:47:04.027Z,99.99
2018-09-04T06:48:04.020Z,99.99
2018-09-04T06:49:04.018Z,99.99
2018-09-04T06:50:04.222Z,99.99
2018-09-04T06:51:04.023Z,99.99
2018-09-04T06:52:04.027Z,99.99
2018-09-04T06:53:04.028Z,99.99
2018-09-04T06:54:04.029Z,99.99
2018-09-04T06:55:04.056Z,99.99
2018-09-04T06:56:04.265Z,99.99
2018-09-04T06:57:04.036Z,99.99
2018-09-04T06:58:04.049Z,99.99
2018-09-04T06:59:04.244Z,99.99
2018-09-04T07:00:04.044Z,99.99
2018-09-04T07:01:04.260Z,99.99
2018-09-04T07:02:04.061Z,99.99
2018-09-04T07:03:04.254Z,99.99
2018-09-04T07:04:04.255Z,99.99
2018-09-04T07:05:04.261Z,99.99
2018-09-04T07:06:04.063Z,99.99
2018-09-04T07:07:04.075Z,99.99
2018-09-04T07:08:04.083Z,99.99
2018-09-04T07:09:04.082Z,99.99
2018-09-04T07:10:04.080Z,99.99
2018-09-04T07:11:04.073Z,99.99
2018-09-04T07:12:04.096Z,99.99
2018-09-04T07:13:04.293Z,99.99
2018-09-04T07:14:04.076Z,99.99
2018-09-04T07:15:04.157Z,99.99
2018-09-04T07:16:04.083Z,99.99
2018-09-04T07:17:04.164Z,99.99
2018-09-04T07:18:04.092Z,99.99
2018-09-04T07:19:04.105Z,99.99
2018-09-04T07:20:04.098Z,99.99
2018-09-04T07:21:04.109Z,99.99
2018-09-04T07:22:04.114Z,99.99
2018-09-04T07:23:04.112Z,99.99
2018-09-04T07:24:04.313Z,99.99
2018-09-04T07:25:04.120Z,99.99
2018-09-04T07:26:04.121Z,99.99
2018-09-04T07:27:04.142Z,99.99
2018-09-04T07:28:04.331Z,99.99
2018-09-04T07:29:04.130Z,99.99
2018-09-04T07:30:04.122Z,99.99
2018-09-04T07:31:04.125Z,99.99
2018-09-04T07:32:04.130Z,99.99
2018-09-04T07:33:04.128Z,99.99
2018-09-04T07:34:04.131Z,99.99
2018-09-04T07:35:04.337Z,99.99
2018-09-04T07:36:04.149Z,99.99
2018-09-04T07:37:04.157Z,99.99
2018-09-04T07:38:04.159Z,99.99
2018-09-04T07:39:04.161Z,99.99
2018-09-04T07:40:04.152Z,99.99
2018-09-04T07:41:04.156Z,99.99
2018-09-04T07:42:04.313Z,99.99
2018-09-04T07:43:04.362Z,99.99
2018-09-04T07:44:04.375Z,99.99
2018-09-04T07:45:04.178Z,99.99
2018-09-04T07:46:04.189Z,99.99
2018-09-04T07:47:04.374Z,99.99
2018-09-04T07:48:04.186Z,99.99
2018-09-04T07:49:04.207Z,99.99
2018-09-04T07:50:04.383Z,99.99
2018-09-04T07:51:04.210Z,99.99
2018-09-04T07:52:04.201Z,99.99
2018-09-04T07:53:04.216Z,99.99
2018-09-04T07:54:04.407Z,99.99
2018-09-04T07:55:04.217Z,99.99
2018-09-04T07:56:04.202Z,99.99
2018-09-04T07:57:04.218Z,99.99
2018-09-04T07:58:04.216Z,99.99
2018-09-04T07:59:04.219Z,99.99
2018-09-04T08:00:04.212Z,99.99
2018-09-04T08:01:04.252Z,99.99
2018-09-04T08:02:04.225Z,99.99
2018-09-04T08:03:04.435Z,99.99
2018-09-04T08:04:04.249Z,99.99
2018-09-04T08:05:04.225Z,99.99
2018-09-04T08:06:04.240Z,99.99
2018-09-04T08:07:04.258Z,99.99
2018-09-04T08:08:04.238Z,99.99
2018-09-04T08:09:04.253Z,99.99
2018-09-04T08:10:04.285Z,99.99
2018-09-04T08:11:04.246Z,99.99
2018-09-04T08:12:04.448Z,99.99
2018-09-04T08:13:04.262Z,99.99
2018-09-04T08:14:04.466Z,99.99
2018-09-04T08:15:04.257Z,99.99
2018-09-04T08:16:04.258Z,99.99
2018-09-04T08:17:04.263Z,99.99
2018-09-04T08:18:04.264Z,99.99
2018-09-04T08:19:04.267Z,99.99
2018-09-04T08:20:04.271Z,99.99
2018-09-04T08:21:04.281Z,99.99
2018-09-04T08:22:04.279Z,99.99
2018-09-04T08:23:04.285Z,99.99
2018-09-04T08:24:04.286Z,99.99
2018-09-04T08:25:04.505Z,99.99
2018-09-04T08:26:04.557Z,99.99
2018-09-04T08:27:04.298Z,99.99
2018-09-04T08:28:04.302Z,99.99
2018-09-04T08:29:04.310Z,99.99
2018-09-04T08:30:04.319Z,99.99
2018-09-04T08:31:04.312Z,99.99
2018-09-04T08:32:04.313Z,99.99
2018-09-04T08:33:04.361Z,99.99
2018-09-04T08:34:04.521Z,99.99
2018-09-04T08:35:04.324Z,99.99
2018-09-04T08:36:04.540Z,99.99
2018-09-04T08:37:04.356Z,99.99
2018-09-04T08:38:04.351Z,99.99
2018-09-04T08:39:04.350Z,99.99
2018-09-04T08:40:04.388Z,99.99
2018-09-04T08:41:04.350Z,99.99
2018-09-04T08:42:04.552Z,99.99
2018-09-04T08:43:04.356Z,99.99
2018-09-04T08:44:04.558Z,99.99
2018-09-04T08:45:04.377Z,99.99
2018-09-04T08:46:04.378Z,99.99
2018-09-04T08:47:04.405Z,99.99
2018-09-04T08:48:04.383Z,99.99
2018-09-04T08:49:04.380Z,99.99
2018-09-04T08:50:04.392Z,99.99
2018-09-04T08:51:04.397Z,99.99
2018-09-04T08:52:04.400Z,99.99
2018-09-04T08:53:04.393Z,99.99
2018-09-04T08:54:04.398Z,99.99
2018-09-04T08:55:04.401Z,99.99
2018-09-04T08:56:04.622Z,99.99
2018-09-04T08:57:04.427Z,99.99
2018-09-04T08:58:04.412Z,99.99
2018-09-04T08:59:04.430Z,99.99
2018-09-04T09:00:04.421Z,99.99
2018-09-04T09:01:04.630Z,99.99
2018-09-04T09:02:04.439Z,99.99
2018-09-04T09:03:04.431Z,99.99
2018-09-04T09:04:04.442Z,99.99
2018-09-04T09:05:04.452Z,99.99
2018-09-04T09:06:04.447Z,99.99
2018-09-04T09:07:04.451Z,99.99
2018-09-04T09:08:04.452Z,99.99
2018-09-04T09:09:04.471Z,99.99
2018-09-04T09:10:04.522Z,99.99
2018-09-04T09:11:04.481Z,99.99
2018-09-04T09:12:04.484Z,99.99
2018-09-04T09:13:04.690Z,99.99
2018-09-04T09:14:04.479Z,99.99
2018-09-04T09:15:04.491Z,99.99
2018-09-04T09:16:04.500Z,99.99
2018-09-04T09:17:04.505Z,99.99
2018-09-04T09:18:04.507Z,99.99
2018-09-04T09:19:04.508Z,99.99
2018-09-04T09:20:04.503Z,99.99
2018-09-04T09:21:04.508Z,99.99
2018-09-04T09:22:04.713Z,99.99
2018-09-04T09:23:04.531Z,99.99
2018-09-04T09:24:04.521Z,99.99
2018-09-04T09:25:04.521Z,99.99
2018-09-04T09:26:04.546Z,99.99
2018-09-04T09:27:04.530Z,99.99
2018-09-04T09:28:04.543Z,99.99
2018-09-04T09:29:04.556Z,99.99
2018-09-04T09:30:04.568Z,99.99
2018-09-04T09:31:04.547Z,99.99
2018-09-04T09:32:04.558Z,99.99
2018-09-04T09:33:04.574Z,99.99
2018-09-04T09:34:04.583Z,99.99
2018-09-04T09:35:04.809Z,99.99
2018-09-04T09:36:04.575Z,99.99
2018-09-04T09:37:04.663Z,99.99
2018-09-04T09:38:04.776Z,99.99
2018-09-04T09:39:04.578Z,99.99
2018-09-04T09:40:04.594Z,99.99
2018-09-04T09:41:04.606Z,99.99
2018-09-04T09:42:04.587Z,99.99
2018-09-04T09:43:04.794Z,99.99
2018-09-04T09:44:04.606Z,99.99
2018-09-04T09:45:04.611Z,99.99
2018-09-04T09:46:04.612Z,99.99
2018-09-04T09:47:04.606Z,99.99
2018-09-04T09:48:04.686Z,99.99
2018-09-04T09:49:04.637Z,99.99
2018-09-04T09:50:04.834Z,99.99
2018-09-04T09:51:04.620Z,99.99
2018-09-04T09:52:04.864Z,99.99
2018-09-04T09:53:04.726Z,99.99
2018-09-04T09:54:04.691Z,99.99
2018-09-04T09:55:04.672Z,99.99
2018-09-04T09:56:04.664Z,99.99
2018-09-04T09:57:04.854Z,99.99
2018-09-04T09:58:04.665Z,99.99
2018-09-04T09:59:04.658Z,99.99
2018-09-04T10:00:04.893Z,99.99
2018-09-04T10:01:04.664Z,99.99
2018-09-04T10:02:04.667Z,99.99
2018-09-04T10:03:04.669Z,99.99
2018-09-04T10:04:04.745Z,99.99
2018-09-04T10:05:04.689Z,99.99
2018-09-04T10:06:04.884Z,99.99
2018-09-04T10:07:04.699Z,99.99
2018-09-04T10:08:04.961Z,99.99
2018-09-04T10:09:04.696Z,99.99
2018-09-04T10:10:04.710Z,99.99
2018-09-04T10:11:04.713Z,99.99
2018-09-04T10:12:04.720Z,99.99
2018-09-04T10:13:04.735Z,99.99
2018-09-04T10:14:04.711Z,99.99
2018-09-04T10:15:04.742Z,99.99
2018-09-04T10:16:04.722Z,99.99
2018-09-04T10:17:04.729Z,99.99
2018-09-04T10:18:04.729Z,99.99
2018-09-04T10:19:04.949Z,99.99
2018-09-04T10:20:04.819Z,99.99
2018-09-04T10:21:04.746Z,99.99
2018-09-04T10:22:04.747Z,99.99
2018-09-04T10:23:04.764Z,99.99
2018-09-04T10:24:04.787Z,99.99
2018-09-04T10:25:04.757Z,99.99
2018-09-04T10:26:04.786Z,99.99
2018-09-04T10:27:04.969Z,99.99
2018-09-04T10:28:04.774Z,99.99
2018-09-04T10:29:04.773Z,99.99
2018-09-04T10:30:04.794Z,99.99
2018-09-04T10:31:05.013Z,99.99
2018-09-04T10:32:04.787Z,99.99
2018-09-04T10:33:04.821Z,99.99
2018-09-04T10:34:04.796Z,99.79
2018-09-04T10:35:04.813Z,99.99
2018-09-04T10:36:04.833Z,99.99
2018-09-04T10:37:05.022Z,99.99
2018-09-04T10:38:05.018Z,99.99
2018-09-04T10:39:04.826Z,99.99
2018-09-04T10:40:05.024Z,99.99
2018-09-04T10:41:04.825Z,99.99
2018-09-04T10:42:04.845Z,98.44
2018-09-04T10:43:04.832Z,99.11
2018-09-04T10:44:04.852Z,99.99
2018-09-04T10:45:05.045Z,99.99
2018-09-04T10:46:04.874Z,99.99
2018-09-04T10:47:04.858Z,99.99
2018-09-04T10:48:05.054Z,99.50
2018-09-04T10:49:04.857Z,99.11
2018-09-04T10:50:05.095Z,99.99
2018-09-04T10:51:04.873Z,98.73
2018-09-04T10:52:04.868Z,99.88
2018-09-04T10:53:05.087Z,99.02
2018-09-04T10:54:04.889Z,99.99
2018-09-04T10:55:04.892Z,99.11
2018-09-04T10:56:05.087Z,99.99
2018-09-04T10:57:05.103Z,99.99
2018-09-04T10:58:05.105Z,99.99
2018-09-04T10:59:05.100Z,99.99
2018-09-04T11:00:04.911Z,99.99
2018-09-04T11:01:05.111Z,99.99
2018-09-04T11:02:04.923Z,99.99
2018-09-04T11:03:04.913Z,99.99
2018-09-04T11:04:05.120Z,99.99
2018-09-04T11:05:05.133Z,99.99
2018-09-04T11:06:04.925Z,99.88
2018-09-04T11:07:04.930Z,99.99
2018-09-04T11:08:04.958Z,99.99
2018-09-04T11:09:05.273Z,99.99
2018-09-04T11:10:04.953Z,98.34
2018-09-04T11:11:04.957Z,99.99
2018-09-04T11:12:04.964Z,99.99
2018-09-04T11:13:04.955Z,99.99
2018-09-04T11:14:05.175Z,99.99
2018-09-04T11:15:04.982Z,99.99
2018-09-04T11:16:04.987Z,99.99
2018-09-04T11:17:04.974Z,99.99
2018-09-04T11:18:05.044Z,99.99
2018-09-04T11:19:04.992Z,99.99
2018-09-04T11:20:04.994Z,99.99
2018-09-04T11:21:04.985Z,99.99
2018-09-04T11:22:04.992Z,99.99
2018-09-04T11:23:05.013Z,99.99
2018-09-04T11:24:05.000Z,99.99
2018-09-04T11:25:05.031Z,99.99
2018-09-04T11:26:05.005Z,99.99
2018-09-04T11:27:05.021Z,99.99
2018-09-04T11:28:05.030Z,99.99
2018-09-04T11:29:05.032Z,99.99
2018-09-04T11:30:05.035Z,99.99
2018-09-04T11:31:05.051Z,99.99
2018-09-04T11:32:05.245Z,99.99
2018-09-04T11:33:05.253Z,99.99
2018-09-04T11:34:05.042Z,99.99
2018-09-04T11:35:05.067Z,98.83
2018-09-04T11:36:05.264Z,99.99
2018-09-04T11:37:05.058Z,99.99
2018-09-04T11:38:05.272Z,99.99
2018-09-04T11:39:05.078Z,99.31
2018-09-04T11:40:05.068Z,98.10
2018-09-04T11:41:05.275Z,99.99
2018-09-04T11:42:05.074Z,99.99
2018-09-04T11:43:05.091Z,99.99
2018-09-04T11:44:05.105Z,99.99
2018-09-04T11:45:05.093Z,99.99
2018-09-04T11:46:05.092Z,99.99
2018-09-04T11:47:05.190Z,99.99
2018-09-04T11:48:05.288Z,99.74
2018-09-04T11:49:05.107Z,99.99
2018-09-04T11:50:05.125Z,98.93
2018-09-04T11:51:05.138Z,99.50
2018-09-04T11:52:05.128Z,99.99
2018-09-04T11:53:05.124Z,99.99
2018-09-04T11:54:05.154Z,98.15
2018-09-04T11:55:05.344Z,99.69
2018-09-04T11:56:05.139Z,99.99
2018-09-04T11:57:05.362Z,99.41
2018-09-04T11:58:05.158Z,99.50
2018-09-04T11:59:05.177Z,99.99
2018-09-04T12:00:05.164Z,99.11
2018-09-04T12:01:05.191Z,97.67
2018-09-04T12:02:05.182Z,99.99
2018-09-04T12:03:05.369Z,99.07
2018-09-04T12:04:05.173Z,97.47
2018-09-04T12:05:05.193Z,99.99
2018-09-04T12:06:05.400Z,96.80
2018-09-04T12:07:05.186Z,97.33
2018-09-04T12:08:05.191Z,95.78
2018-09-04T12:09:05.193Z,97.62
2018-09-04T12:10:05.198Z,95.68
2018-09-04T12:11:05.219Z,95.20
2018-09-04T12:12:05.241Z,93.71
2018-09-04T12:13:05.461Z,94.19
2018-09-04T12:14:05.216Z,96.22
2018-09-04T12:15:05.233Z,96.22
2018-09-04T12:16:05.429Z,96.51
2018-09-04T12:17:05.462Z,96.12
2018-09-04T12:18:05.234Z,95.83
2018-09-04T12:19:05.255Z,98.05
2018-09-04T12:20:05.278Z,97.28
2018-09-04T12:21:05.685Z,98.35
2018-09-04T12:22:05.252Z,98.25
2018-09-04T12:23:05.261Z,99.02
2018-09-04T12:24:05.264Z,99.31
2018-09-04T12:25:05.268Z,99.31
2018-09-04T12:26:05.291Z,99.50
2018-09-04T12:27:05.307Z,98.25
2018-09-04T12:28:05.286Z,98.15
2018-09-04T12:29:05.287Z,98.15
2018-09-04T12:30:05.301Z,98.54
2018-09-04T12:31:05.299Z,95.73
2018-09-04T12:32:05.318Z,96.07
2018-09-04T12:33:05.305Z,95.30
2018-09-04T12:34:05.514Z,93.66
2018-09-04T12:35:05.317Z,92.21
2018-09-04T12:36:05.329Z,92.93
2018-09-04T12:37:05.324Z,92.93
2018-09-04T12:38:05.329Z,91.86
2018-09-04T12:39:05.364Z,93.02
2018-09-04T12:40:05.338Z,92.16
2018-09-04T12:41:05.382Z,91.67
2018-09-04T12:42:05.371Z,92.74
2018-09-04T12:43:05.367Z,92.83
2018-09-04T12:44:05.355Z,91.14
2018-09-04T12:45:05.372Z,92.49
2018-09-04T12:46:05.375Z,91.72
2018-09-04T12:47:05.381Z,91.67
2018-09-04T12:48:05.448Z,95.06
2018-09-04T12:49:05.379Z,93.95
2018-09-04T12:50:05.394Z,94.09
2018-09-04T12:51:05.388Z,91.19
2018-09-04T12:52:05.419Z,90.61